Irving South's Hourly Summary for Thursday, March 16, 2017
Hour Temp
(f)
RH
(%)
Solar Rad.
(MJ/m2)
Rainfall
(in)
Wind
(mph)
3/16/2017 12:00 AM 55 53 0 0 1.47
3/16/2017 1:00 AM 54 56 0 0 1.07
3/16/2017 2:00 AM 53 62 0 0 0.63
3/16/2017 3:00 AM 52 65 0 0 1.34
3/16/2017 4:00 AM 52 67 0 0 1.07
3/16/2017 5:00 AM 53 74 0 0 2.2
3/16/2017 6:00 AM 55 79 0 0 2.77
3/16/2017 7:00 AM 55 80 0 0 2.66
3/16/2017 8:00 AM 56 81 0 0 2.14
3/16/2017 9:00 AM 57 81 0.06 0 2.31
3/16/2017 10:00 AM 58 77 0.17 0 1.63
3/16/2017 11:00 AM 59 76 0.35 0 2.79
3/16/2017 12:00 PM 60 73 0.48 0 3.7
3/16/2017 1:00 PM 62 68 0.85 0 3.8
3/16/2017 2:00 PM 65 65 0.91 0 3.54
3/16/2017 3:00 PM 66 65 0.75 0 4.49
3/16/2017 4:00 PM 68 63 0.67 0 4.78
3/16/2017 5:00 PM 69 60 0.68 0 4.91
3/16/2017 6:00 PM 71 56 0.69 0 6.22
3/16/2017 7:00 PM 72 54 0.46 0 5.05
3/16/2017 8:00 PM 70 57 0.05 0 3.33
3/16/2017 9:00 PM 68 63 0 0 2.2
3/16/2017 10:00 PM 68 65 0 0 1.33
3/16/2017 11:00 PM 66 66 0 0 1.04
Data Summary 61 66 6.12 0.00 2.77